Time,TemperatureF,DewpointF,PressureIn,WindDirection,WindDirectionDegrees,WindSpeedMPH,WindSpeedGustMPH,Humidity,HourlyPrecipIn,Conditions,Clouds,dailyrainin,SoftwareType,DateUTC
2013-07-08 00:00:00,73.4,69.6,29.82,ENE,77,0.0,1.0,88,0.00,,CLR,0.00,VWS V14.01,2013-07-08 05:00:00,
2013-07-08 00:10:00,72.9,69.8,29.83,NW,314,0.0,0.0,90,0.00,,CLR,0.00,VWS V14.01,2013-07-08 05:10:00,
2013-07-08 00:20:00,72.4,69.6,29.83,NW,314,0.0,0.0,91,0.00,,CLR,0.00,VWS V14.01,2013-07-08 05:20:00,
2013-07-08 00:30:00,71.9,69.4,29.83,NW,314,0.0,0.0,92,0.00,,CLR,0.00,VWS V14.01,2013-07-08 05:30:00,
2013-07-08 00:40:00,71.5,69.1,29.83,NW,314,0.0,0.0,92,0.00,,CLR,0.00,VWS V14.01,2013-07-08 05:40:00,
2013-07-08 00:50:00,71.1,69.0,29.83,NW,314,0.0,0.0,93,0.00,,CLR,0.00,VWS V14.01,2013-07-08 05:50:00,
2013-07-08 00:55:00,70.9,68.8,29.83,NW,314,0.0,0.0,93,0.00,,CLR,0.00,VWS V14.01,2013-07-08 05:55:00,
2013-07-08 01:05:00,70.7,68.9,29.83,NW,314,0.0,0.0,94,0.00,,CLR,0.00,VWS V14.01,2013-07-08 06:05:00,
2013-07-08 01:15:00,70.4,68.6,29.83,NW,314,0.0,0.0,94,0.00,,CLR,0.00,VWS V14.01,2013-07-08 06:15:00,
2013-07-08 01:20:00,70.4,68.6,29.84,NW,314,0.0,1.0,94,0.00,,CLR,0.00,VWS V14.01,2013-07-08 06:20:00,
2013-07-08 01:25:00,70.3,68.5,29.84,NW,314,0.0,1.0,94,0.00,,CLR,0.00,VWS V14.01,2013-07-08 06:25:00,
2013-07-08 01:30:00,70.2,68.4,29.84,NW,314,0.0,0.0,94,0.00,,CLR,0.00,VWS V14.01,2013-07-08 06:30:00,
2013-07-08 01:35:00,70.2,68.4,29.84,NW,314,0.0,0.0,94,0.00,,CLR,0.00,VWS V14.01,2013-07-08 06:35:00,
2013-07-08 01:40:00,70.2,68.4,29.84,NW,314,0.0,1.0,94,0.00,,CLR,0.00,VWS V14.01,2013-07-08 06:40:00,
2013-07-08 01:50:00,70.1,68.3,29.85,NW,314,0.0,0.0,94,0.00,,CLR,0.00,VWS V14.01,2013-07-08 06:50:00,
2013-07-08 02:00:00,69.9,68.1,29.85,NW,315,2.0,3.1,94,0.00,,CLR,0.00,VWS V14.01,2013-07-08 07:00:00,
2013-07-08 02:05:00,70.0,68.2,29.85,North,5,0.0,4.2,94,0.00,,CLR,0.00,VWS V14.01,2013-07-08 07:05:00,
2013-07-08 02:15:00,69.8,68.0,29.85,North,5,0.0,0.0,94,0.00,,CLR,0.00,VWS V14.01,2013-07-08 07:15:00,
2013-07-08 02:20:00,69.7,67.9,29.85,North,5,0.0,0.0,94,0.00,,CLR,0.00,VWS V14.01,2013-07-08 07:20:00,
2013-07-08 02:30:00,69.4,67.6,29.85,North,5,0.0,0.0,94,0.00,,CLR,0.00,VWS V14.01,2013-07-08 07:30:00,
2013-07-08 02:40:00,69.2,67.4,29.85,North,5,0.0,0.0,94,0.00,,CLR,0.00,VWS V14.01,2013-07-08 07:40:00,
2013-07-08 02:45:00,69.0,67.2,29.85,North,5,0.0,0.0,94,0.00,,CLR,0.00,VWS V14.01,2013-07-08 07:45:00,
2013-07-08 02:50:00,68.8,67.0,29.85,North,5,0.0,0.0,94,0.00,,CLR,0.00,VWS V14.01,2013-07-08 07:50:00,
2013-07-08 03:00:00,68.5,66.7,29.85,North,5,0.0,0.0,94,0.00,,CLR,0.00,VWS V14.01,2013-07-08 08:00:00,
2013-07-08 03:10:00,68.0,66.2,29.85,North,5,0.0,0.0,94,0.00,,CLR,0.00,VWS V14.01,2013-07-08 08:10:00,
2013-07-08 03:15:00,67.8,66.0,29.85,North,5,0.0,1.0,94,0.00,,CLR,0.00,VWS V14.01,2013-07-08 08:15:00,
2013-07-08 03:20:00,67.6,65.8,29.85,North,5,0.0,0.0,94,0.00,,CLR,0.00,VWS V14.01,2013-07-08 08:20:00,
2013-07-08 03:25:00,67.4,65.6,29.85,North,5,0.0,1.0,94,0.00,,CLR,0.00,VWS V14.01,2013-07-08 08:25:00,
2013-07-08 03:30:00,67.3,65.5,29.85,North,5,0.0,1.0,94,0.00,,CLR,0.00,VWS V14.01,2013-07-08 08:30:00,
2013-07-08 03:35:00,67.1,65.3,29.85,North,5,0.0,1.0,94,0.00,,CLR,0.00,VWS V14.01,2013-07-08 08:35:00,
2013-07-08 03:40:00,67.0,65.2,29.85,North,5,0.0,0.0,94,0.00,,CLR,0.00,VWS V14.01,2013-07-08 08:40:00,
2013-07-08 03:50:00,66.8,65.0,29.85,North,5,0.0,1.0,94,0.00,,CLR,0.00,VWS V14.01,2013-07-08 08:50:00,
2013-07-08 03:55:00,66.7,64.9,29.85,North,5,0.0,0.0,94,0.00,,CLR,0.00,VWS V14.01,2013-07-08 08:55:00,
2013-07-08 04:00:00,66.6,64.8,29.85,North,5,0.0,1.0,94,0.00,,CLR,0.00,VWS V14.01,2013-07-08 09:00:00,
2013-07-08 04:10:00,66.4,64.6,29.85,North,5,0.0,0.0,94,0.00,,CLR,0.00,VWS V14.01,2013-07-08 09:10:00,
2013-07-08 04:15:00,66.3,64.8,29.84,North,5,0.0,0.0,95,0.00,,CLR,0.00,VWS V14.01,2013-07-08 09:15:00,
2013-07-08 04:20:00,66.1,64.6,29.84,North,5,0.0,0.0,95,0.00,,CLR,0.00,VWS V14.01,2013-07-08 09:20:00,
2013-07-08 04:25:00,65.9,64.1,29.84,North,5,0.0,0.0,94,0.00,,CLR,0.00,VWS V14.01,2013-07-08 09:25:00,
2013-07-08 04:35:00,65.6,63.8,29.84,North,5,0.0,1.0,94,0.00,,CLR,0.00,VWS V14.01,2013-07-08 09:35:00,
2013-07-08 04:40:00,65.4,63.6,29.85,North,5,0.0,0.0,94,0.00,,CLR,0.00,VWS V14.01,2013-07-08 09:40:00,
2013-07-08 04:50:00,65.0,63.2,29.85,North,5,0.0,0.0,94,0.00,,CLR,0.00,VWS V14.01,2013-07-08 09:50:00,
2013-07-08 05:00:00,64.8,63.3,29.85,North,5,0.0,0.0,95,0.00,,CLR,0.00,VWS V14.01,2013-07-08 10:00:00,
2013-07-08 05:05:00,64.6,62.8,29.85,North,5,0.0,0.0,94,0.00,,CLR,0.00,VWS V14.01,2013-07-08 10:05:00,
2013-07-08 05:15:00,64.4,62.6,29.85,North,5,0.0,1.0,94,0.00,,CLR,0.00,VWS V14.01,2013-07-08 10:15:00,
2013-07-08 05:25:00,64.1,62.6,29.85,North,5,0.0,1.0,95,0.00,,CLR,0.00,VWS V14.01,2013-07-08 10:25:00,
2013-07-08 05:35:00,63.9,62.1,29.85,North,5,0.0,1.0,94,0.00,,CLR,0.00,VWS V14.01,2013-07-08 10:35:00,
2013-07-08 05:45:00,63.7,62.0,29.85,North,5,0.0,1.0,94,0.00,,CLR,0.00,VWS V14.01,2013-07-08 10:45:00,
2013-07-08 05:55:00,63.7,62.2,29.85,NNW,336,0.0,1.0,95,0.00,,CLR,0.00,VWS V14.01,2013-07-08 10:55:00,
2013-07-08 06:00:00,63.7,62.2,29.85,NNW,335,0.0,1.0,95,0.00,,CLR,0.00,VWS V14.01,2013-07-08 11:00:00,
2013-07-08 06:10:00,63.9,62.4,29.85,NNW,339,1.0,4.2,95,0.00,,CLR,0.00,VWS V14.01,2013-07-08 11:10:00,
2013-07-08 06:20:00,64.2,62.4,29.86,NNW,339,0.0,0.0,94,0.00,,CLR,0.00,VWS V14.01,2013-07-08 11:20:00,
2013-07-08 06:30:00,64.5,62.7,29.86,NNW,339,0.0,1.0,94,0.00,,CLR,0.00,VWS V14.01,2013-07-08 11:30:00,
2013-07-08 06:35:00,64.9,63.1,29.86,NNW,339,0.0,1.0,94,0.00,,CLR,0.00,VWS V14.01,2013-07-08 11:35:00,
2013-07-08 06:40:00,65.4,63.6,29.86,NNW,339,1.0,2.1,94,0.00,,CLR,0.00,VWS V14.01,2013-07-08 11:40:00,
2013-07-08 06:45:00,65.7,63.3,29.86,North,5,3.0,5.2,92,0.00,,CLR,0.00,VWS V14.01,2013-07-08 11:45:00,
2013-07-08 06:55:00,66.4,63.7,29.87,NNE,15,2.0,6.3,91,0.00,,CLR,0.00,VWS V14.01,2013-07-08 11:55:00,
2013-07-08 07:05:00,67.1,64.4,29.87,NNE,33,3.0,4.2,91,0.00,,CLR,0.00,VWS V14.01,2013-07-08 12:05:00,
2013-07-08 07:10:00,67.4,64.7,29.87,NNE,33,3.0,5.2,91,0.00,,CLR,0.00,VWS V14.01,2013-07-08 12:10:00,
2013-07-08 07:15:00,67.8,65.1,29.87,NE,34,4.0,5.2,91,0.00,,CLR,0.00,VWS V14.01,2013-07-08 12:15:00,
2013-07-08 07:25:00,68.6,65.6,29.87,NE,35,4.0,6.3,90,0.00,,CLR,0.00,VWS V14.01,2013-07-08 12:25:00,
2013-07-08 07:30:00,69.1,66.1,29.88,NE,41,3.0,5.2,90,0.00,,CLR,0.00,VWS V14.01,2013-07-08 12:30:00,
2013-07-08 07:40:00,70.1,66.4,29.88,NNE,24,3.0,5.2,88,0.00,,CLR,0.00,VWS V14.01,2013-07-08 12:40:00,
2013-07-08 07:45:00,70.4,66.7,29.88,NNE,13,4.0,5.2,88,0.00,,CLR,0.00,VWS V14.01,2013-07-08 12:45:00,
2013-07-08 07:50:00,70.8,67.1,29.89,NNE,31,5.0,5.2,88,0.00,,CLR,0.00,VWS V14.01,2013-07-08 12:50:00,
2013-07-08 07:55:00,71.2,67.5,29.89,NNE,15,3.0,6.3,88,0.00,,CLR,0.00,VWS V14.01,2013-07-08 12:55:00,
2013-07-08 08:05:00,71.7,67.6,29.89,NE,36,5.0,6.3,87,0.00,,CLR,0.00,VWS V14.01,2013-07-08 13:05:00,
2013-07-08 08:10:00,71.9,67.5,29.89,NNE,18,3.0,8.4,86,0.00,,CLR,0.00,VWS V14.01,2013-07-08 13:10:00,
2013-07-08 08:15:00,72.2,67.8,29.89,North,5,5.0,5.2,86,0.00,,CLR,0.00,VWS V14.01,2013-07-08 13:15:00,
2013-07-08 08:20:00,72.5,68.1,29.89,NNE,22,1.0,6.3,86,0.00,,CLR,0.00,VWS V14.01,2013-07-08 13:20:00,
2013-07-08 08:25:00,73.0,68.2,29.89,NE,35,5.0,6.3,85,0.00,,CLR,0.00,VWS V14.01,2013-07-08 13:25:00,
2013-07-08 08:30:00,73.3,68.2,29.90,NE,48,5.0,6.3,84,0.00,,CLR,0.00,VWS V14.01,2013-07-08 13:30:00,
2013-07-08 08:35:00,73.5,67.7,29.90,NE,35,5.0,8.4,82,0.00,,CLR,0.00,VWS V14.01,2013-07-08 13:35:00,
2013-07-08 08:40:00,73.8,68.7,29.90,NNE,26,4.0,8.4,84,0.00,,CLR,0.00,VWS V14.01,2013-07-08 13:40:00,
2013-07-08 08:45:00,74.2,68.4,29.90,NE,34,3.0,6.3,82,0.00,,CLR,0.00,VWS V14.01,2013-07-08 13:45:00,
2013-07-08 08:55:00,74.7,68.8,29.90,NE,34,4.0,6.3,82,0.00,,CLR,0.00,VWS V14.01,2013-07-08 13:55:00,
2013-07-08 09:00:00,75.0,68.8,29.90,North,11,5.0,9.4,81,0.00,,CLR,0.00,VWS V14.01,2013-07-08 14:00:00,
2013-07-08 09:05:00,75.1,68.5,29.90,NE,52,6.0,9.4,80,0.00,,CLR,0.00,VWS V14.01,2013-07-08 14:05:00,
2013-07-08 09:10:00,75.2,68.6,29.91,ENE,60,3.0,9.4,80,0.00,,CLR,0.00,VWS V14.01,2013-07-08 14:10:00,
2013-07-08 09:20:00,75.2,68.6,29.91,NE,53,5.0,10.5,80,0.00,,CLR,0.00,VWS V14.01,2013-07-08 14:20:00,
2013-07-08 09:30:00,75.4,69.2,29.91,ENE,61,8.0,10.5,81,0.00,,CLR,0.00,VWS V14.01,2013-07-08 14:30:00,
2013-07-08 09:35:00,75.7,69.1,29.91,ENE,61,2.0,8.4,80,0.00,,CLR,0.00,VWS V14.01,2013-07-08 14:35:00,
2013-07-08 09:40:00,76.0,69.4,29.91,NE,53,3.0,5.2,80,0.00,,CLR,0.00,VWS V14.01,2013-07-08 14:40:00,
2013-07-08 09:45:00,76.2,69.6,29.91,NNE,32,5.0,10.5,80,0.00,,CLR,0.00,VWS V14.01,2013-07-08 14:45:00,
2013-07-08 09:50:00,76.3,70.1,29.91,ENE,68,6.0,8.4,81,0.00,,CLR,0.00,VWS V14.01,2013-07-08 14:50:00,
2013-07-08 09:55:00,76.5,70.2,29.91,ENE,63,2.0,9.4,81,0.00,,CLR,0.00,VWS V14.01,2013-07-08 14:55:00,
2013-07-08 10:00:00,76.9,70.3,29.91,ENE,59,9.0,10.5,80,0.00,,CLR,0.00,VWS V14.01,2013-07-08 15:00:00,
2013-07-08 10:05:00,77.0,70.4,29.92,ENE,64,2.0,9.4,80,0.00,,CLR,0.00,VWS V14.01,2013-07-08 15:05:00,
2013-07-08 10:10:00,77.1,70.5,29.92,ENE,57,6.0,9.4,80,0.00,,CLR,0.00,VWS V14.01,2013-07-08 15:10:00,
2013-07-08 10:15:00,77.2,70.2,29.92,East,86,5.0,11.5,79,0.00,,CLR,0.00,VWS V14.01,2013-07-08 15:15:00,
2013-07-08 10:20:00,77.4,70.8,29.92,East,92,2.0,8.4,80,0.00,,CLR,0.00,VWS V14.01,2013-07-08 15:20:00,
2013-07-08 10:25:00,77.8,70.8,29.92,ENE,58,2.0,7.3,79,0.00,,CLR,0.00,VWS V14.01,2013-07-08 15:25:00,
2013-07-08 10:30:00,78.0,71.3,29.92,ENE,60,6.0,8.4,80,0.00,,CLR,0.00,VWS V14.01,2013-07-08 15:30:00,
2013-07-08 10:35:00,78.1,71.1,29.92,East,88,5.0,9.4,79,0.00,,CLR,0.00,VWS V14.01,2013-07-08 15:35:00,
2013-07-08 10:45:00,78.1,70.7,29.92,NE,39,4.0,10.5,78,0.00,,CLR,0.00,VWS V14.01,2013-07-08 15:45:00,
2013-07-08 10:50:00,78.1,71.1,29.91,ENE,60,4.0,9.4,79,0.00,,CLR,0.00,VWS V14.01,2013-07-08 15:50:00,
2013-07-08 11:00:00,77.9,72.0,29.91,ENE,78,3.0,9.4,82,0.00,,CLR,0.00,VWS V14.01,2013-07-08 16:00:00,
2013-07-08 11:05:00,78.1,71.8,29.91,ENE,62,6.0,9.4,81,0.00,,CLR,0.00,VWS V14.01,2013-07-08 16:05:00,
2013-07-08 11:15:00,78.3,71.3,29.91,ENE,74,5.0,8.4,79,0.00,,CLR,0.00,VWS V14.01,2013-07-08 16:15:00,
2013-07-08 11:20:00,78.4,71.0,29.91,ENE,69,5.0,10.5,78,0.00,,CLR,0.00,VWS V14.01,2013-07-08 16:20:00,
2013-07-08 11:30:00,78.3,71.3,29.91,ENE,66,6.0,11.5,79,0.00,,CLR,0.00,VWS V14.01,2013-07-08 16:30:00,
2013-07-08 11:40:00,78.4,71.0,29.91,ENE,70,6.0,10.5,78,0.00,,CLR,0.00,VWS V14.01,2013-07-08 16:40:00,
2013-07-08 11:50:00,78.9,72.6,29.91,East,95,4.0,8.4,81,0.00,,CLR,0.00,VWS V14.01,2013-07-08 16:50:00,
2013-07-08 12:00:00,79.4,71.9,29.91,ENE,71,6.0,10.5,78,0.00,,CLR,0.00,VWS V14.01,2013-07-08 17:00:00,
2013-07-08 12:10:00,80.0,71.8,29.91,ENE,67,6.0,10.5,76,0.00,,CLR,0.00,VWS V14.01,2013-07-08 17:10:00,
2013-07-08 12:20:00,80.2,71.2,29.91,East,84,4.0,9.4,74,0.00,,CLR,0.00,VWS V14.01,2013-07-08 17:20:00,
2013-07-08 12:30:00,80.9,69.8,29.91,ESE,109,0.0,7.3,69,0.00,,CLR,0.00,VWS V14.01,2013-07-08 17:30:00,
2013-07-08 12:35:00,80.9,71.0,29.91,East,98,1.0,8.4,72,0.00,,CLR,0.00,VWS V14.01,2013-07-08 17:35:00,
2013-07-08 12:45:00,81.0,71.1,29.92,East,82,3.0,5.2,72,0.00,,SCT033,0.00,VWS V14.01,2013-07-08 17:45:00,
2013-07-08 12:50:00,81.4,71.5,29.92,East,92,0.0,5.2,72,0.00,,SCT033,0.00,VWS V14.01,2013-07-08 17:50:00,
2013-07-08 12:55:00,81.8,71.5,29.92,ENE,74,3.0,7.3,71,0.00,,SCT033,0.00,VWS V14.01,2013-07-08 17:55:00,
2013-07-08 13:00:00,82.0,72.1,29.92,East,87,0.0,5.2,72,0.00,,SCT033,0.00,VWS V14.01,2013-07-08 18:00:00,
2013-07-08 13:20:00,83.6,71.1,29.92,SE,132,2.0,3.1,66,0.00,,SCT033,0.00,VWS V14.01,2013-07-08 18:20:00,
2013-07-08 13:25:00,83.5,70.9,29.92,NW,311,0.0,5.2,66,0.00,,SCT037,0.00,VWS V14.01,2013-07-08 18:25:00,
2013-07-08 13:35:00,83.7,70.7,29.91,ENE,71,0.0,5.2,65,0.00,,SCT037,0.00,VWS V14.01,2013-07-08 18:35:00,
2013-07-08 13:40:00,83.9,71.3,29.91,NE,36,0.0,3.1,66,0.00,,SCT037,0.00,VWS V14.01,2013-07-08 18:40:00,
2013-07-08 13:50:00,84.7,71.2,29.91,ENE,59,0.0,2.1,64,0.00,,CLR,0.00,VWS V14.01,2013-07-08 18:50:00,
2013-07-08 14:00:00,85.1,71.6,29.91,ENE,69,5.0,5.2,64,0.00,,CLR,0.00,VWS V14.01,2013-07-08 19:00:00,
2013-07-08 14:05:00,84.6,71.6,29.90,ENE,67,3.0,5.2,65,0.00,,CLR,0.00,VWS V14.01,2013-07-08 19:05:00,
2013-07-08 14:10:00,84.2,71.6,29.90,ENE,67,0.0,5.2,66,0.00,,CLR,0.00,VWS V14.01,2013-07-08 19:10:00,
2013-07-08 14:15:00,84.3,72.2,29.90,East,80,2.0,4.2,67,0.00,,CLR,0.00,VWS V14.01,2013-07-08 19:15:00,
2013-07-08 14:25:00,83.9,71.8,29.89,NE,48,5.0,6.3,67,0.00,,CLR,0.00,VWS V14.01,2013-07-08 19:25:00,
2013-07-08 14:40:00,84.7,72.1,29.89,ENE,61,2.0,5.2,66,0.00,,CLR,0.00,VWS V14.01,2013-07-08 19:40:00,
2013-07-08 14:45:00,84.9,72.3,29.89,East,84,7.0,7.3,66,0.00,,CLR,0.00,VWS V14.01,2013-07-08 19:45:00,
2013-07-08 14:50:00,84.9,72.3,29.89,East,86,5.0,8.4,66,0.00,,CLR,0.00,VWS V14.01,2013-07-08 19:50:00,
2013-07-08 15:00:00,85.2,71.2,29.89,East,90,0.0,3.1,63,0.00,,CLR,0.00,VWS V14.01,2013-07-08 20:00:00,
2013-07-08 15:10:00,85.7,71.2,29.89,East,90,0.0,4.2,62,0.00,,CLR,0.00,VWS V14.01,2013-07-08 20:10:00,
2013-07-08 15:20:00,87.0,70.9,29.89,East,93,0.0,4.2,59,0.00,,CLR,0.00,VWS V14.01,2013-07-08 20:20:00,
2013-07-08 15:35:00,86.4,73.2,29.88,ENE,59,4.0,6.3,65,0.00,,CLR,0.00,VWS V14.01,2013-07-08 20:35:00,
2013-07-08 15:40:00,86.3,71.8,29.89,East,85,3.0,4.2,62,0.00,,CLR,0.00,VWS V14.01,2013-07-08 20:40:00,
2013-07-08 15:45:00,86.3,72.2,29.88,East,93,2.0,5.2,63,0.00,,CLR,0.00,VWS V14.01,2013-07-08 20:45:00,
2013-07-08 15:55:00,87.3,70.7,29.88,East,93,2.0,3.1,58,0.00,,CLR,0.00,VWS V14.01,2013-07-08 20:55:00,
2013-07-08 16:15:00,86.7,71.7,29.88,East,88,2.0,3.1,61,0.00,,CLR,0.00,VWS V14.01,2013-07-08 21:15:00,
2013-07-08 16:25:00,87.2,70.1,29.88,ENE,65,0.0,4.2,57,0.00,,CLR,0.00,VWS V14.01,2013-07-08 21:25:00,
2013-07-08 16:30:00,87.2,70.1,29.88,ENE,65,1.0,4.2,57,0.00,,CLR,0.00,VWS V14.01,2013-07-08 21:30:00,
2013-07-08 16:40:00,87.4,70.3,29.88,ENE,63,2.0,4.2,57,0.00,,CLR,0.00,VWS V14.01,2013-07-08 21:40:00,
2013-07-08 16:45:00,87.7,71.6,29.88,ENE,74,1.0,3.1,59,0.00,,CLR,0.00,VWS V14.01,2013-07-08 21:45:00,
2013-07-08 16:55:00,88.0,70.9,29.87,NE,49,2.0,4.2,57,0.00,,CLR,0.00,VWS V14.01,2013-07-08 21:55:00,
2013-07-08 17:00:00,87.8,71.7,29.88,ENE,66,2.0,4.2,59,0.00,,CLR,0.00,VWS V14.01,2013-07-08 22:00:00,
2013-07-08 17:05:00,87.7,71.6,29.87,SW,219,0.0,3.1,59,0.00,,CLR,0.00,VWS V14.01,2013-07-08 22:05:00,
2013-07-08 17:20:00,89.3,69.9,29.87,SSW,195,1.0,2.1,53,0.00,,CLR,0.00,VWS V14.01,2013-07-08 22:20:00,
2013-07-08 17:35:00,89.6,70.8,29.87,SSW,211,3.0,4.2,54,0.00,,CLR,0.00,VWS V14.01,2013-07-08 22:35:00,
2013-07-08 17:45:00,88.5,71.3,29.88,SSW,210,2.0,3.1,57,0.00,,CLR,0.00,VWS V14.01,2013-07-08 22:45:00,
2013-07-08 17:50:00,88.6,69.3,29.87,SSW,210,3.0,3.1,53,0.00,,CLR,0.00,VWS V14.01,2013-07-08 22:50:00,
2013-07-08 18:05:00,89.2,68.7,29.87,SSE,155,2.0,2.1,51,0.00,,CLR,0.00,VWS V14.01,2013-07-08 23:05:00,
2013-07-08 18:10:00,89.2,67.6,29.87,South,189,2.0,6.3,49,0.00,,CLR,0.00,VWS V14.01,2013-07-08 23:10:00,
2013-07-08 18:20:00,89.6,67.9,29.86,South,186,2.0,3.1,49,0.00,,CLR,0.00,VWS V14.01,2013-07-08 23:20:00,
2013-07-08 18:35:00,88.5,69.2,29.87,South,186,4.0,4.2,53,0.00,,CLR,0.00,VWS V14.01,2013-07-08 23:35:00,
2013-07-08 18:45:00,88.4,70.2,29.86,South,185,0.0,2.1,55,0.00,,CLR,0.00,VWS V14.01,2013-07-08 23:45:00,
2013-07-08 18:55:00,88.6,69.8,29.86,South,185,0.0,1.0,54,0.00,,CLR,0.00,VWS V14.01,2013-07-08 23:55:00,
2013-07-08 19:00:00,88.4,70.2,29.86,South,185,0.0,1.0,55,0.00,,CLR,0.00,VWS V14.01,2013-07-09 00:00:00,
2013-07-08 19:10:00,87.7,66.8,29.86,South,185,0.0,1.0,50,0.00,,CLR,0.00,VWS V14.01,2013-07-09 00:10:00,
2013-07-08 19:15:00,87.6,73.5,29.86,East,86,2.0,3.1,63,0.00,,CLR,0.00,VWS V14.01,2013-07-09 00:15:00,
2013-07-08 19:25:00,85.7,73.0,29.85,ENE,57,3.0,6.3,66,0.00,,CLR,0.00,VWS V14.01,2013-07-09 00:25:00,
2013-07-08 19:35:00,84.1,72.4,29.85,NE,44,3.0,5.2,68,0.00,,CLR,0.00,VWS V14.01,2013-07-09 00:35:00,
2013-07-08 19:40:00,83.6,71.9,29.85,ENE,60,4.0,8.4,68,0.00,,CLR,0.00,VWS V14.01,2013-07-09 00:40:00,
2013-07-08 19:45:00,83.4,71.7,29.85,ENE,67,2.0,6.3,68,0.00,,CLR,0.00,VWS V14.01,2013-07-09 00:45:00,
2013-07-08 19:50:00,83.1,71.4,29.85,ENE,75,3.0,5.2,68,0.00,,CLR,0.00,VWS V14.01,2013-07-09 00:50:00,
2013-07-08 19:55:00,82.8,71.2,29.85,ENE,67,2.0,4.2,68,0.00,,CLR,0.00,VWS V14.01,2013-07-09 00:55:00,
2013-07-08 20:00:00,82.5,70.4,29.85,ENE,77,3.0,5.2,67,0.00,,CLR,0.00,VWS V14.01,2013-07-09 01:00:00,
2013-07-08 20:05:00,82.0,70.0,29.85,ENE,66,3.0,4.2,67,0.00,,CLR,0.00,VWS V14.01,2013-07-09 01:05:00,
2013-07-08 20:15:00,81.1,70.4,29.85,ENE,66,2.0,3.1,70,0.00,,CLR,0.00,VWS V14.01,2013-07-09 01:15:00,
2013-07-08 20:20:00,80.7,70.8,29.84,ENE,66,2.0,3.1,72,0.00,,CLR,0.00,VWS V14.01,2013-07-09 01:20:00,
2013-07-08 20:25:00,80.3,70.5,29.84,ENE,66,2.0,3.1,72,0.00,,CLR,0.00,VWS V14.01,2013-07-09 01:25:00,
2013-07-08 20:45:00,79.6,69.4,29.84,ENE,73,2.0,4.2,71,0.00,,CLR,0.00,VWS V14.01,2013-07-09 01:45:00,
2013-07-08 20:55:00,79.5,68.9,29.84,ENE,68,4.0,4.2,70,0.00,,CLR,0.00,VWS V14.01,2013-07-09 01:55:00,
2013-07-08 21:00:00,79.7,69.1,29.84,ENE,70,2.0,4.2,70,0.00,,CLR,0.00,VWS V14.01,2013-07-09 02:00:00,
2013-07-08 21:15:00,79.5,69.3,29.83,ENE,74,2.0,4.2,71,0.00,,CLR,0.00,VWS V14.01,2013-07-09 02:15:00,
2013-07-08 21:30:00,79.1,69.7,29.84,ENE,72,1.0,3.1,73,0.00,,CLR,0.00,VWS V14.01,2013-07-09 02:30:00,
2013-07-08 21:40:00,78.6,70.0,29.84,East,84,1.0,3.1,75,0.00,,CLR,0.00,VWS V14.01,2013-07-09 02:40:00,
2013-07-08 21:45:00,78.4,69.8,29.84,East,84,3.0,3.1,75,0.00,,CLR,0.00,VWS V14.01,2013-07-09 02:45:00,
2013-07-08 21:55:00,78.3,70.1,29.85,East,96,2.0,4.2,76,0.00,,CLR,0.00,VWS V14.01,2013-07-09 02:55:00,
2013-07-08 22:10:00,78.6,70.4,29.85,East,96,2.0,3.1,76,0.00,,CLR,0.00,VWS V14.01,2013-07-09 03:10:00,
2013-07-08 22:35:00,78.0,71.0,29.85,East,96,2.0,3.1,79,0.00,,CLR,0.00,VWS V14.01,2013-07-09 03:35:00,
2013-07-08 22:40:00,77.5,70.8,29.85,East,96,2.0,3.1,80,0.00,,CLR,0.00,VWS V14.01,2013-07-09 03:40:00,
2013-07-08 22:50:00,76.6,70.3,29.86,East,96,3.0,3.1,81,0.00,,CLR,0.00,VWS V14.01,2013-07-09 03:50:00,
2013-07-08 23:05:00,76.0,70.1,29.86,East,96,1.0,2.1,82,0.00,,CLR,0.00,VWS V14.01,2013-07-09 04:05:00,
2013-07-08 23:10:00,75.8,69.9,29.86,East,96,1.0,4.2,82,0.00,,CLR,0.00,VWS V14.01,2013-07-09 04:10:00,
2013-07-08 23:15:00,75.6,70.1,29.85,East,96,1.0,3.1,83,0.00,,CLR,0.00,VWS V14.01,2013-07-09 04:15:00,
2013-07-08 23:20:00,75.5,70.0,29.85,East,96,0.0,3.1,83,0.00,,CLR,0.00,VWS V14.01,2013-07-09 04:20:00,
2013-07-08 23:30:00,75.3,69.8,29.85,East,96,0.0,2.1,83,0.00,,CLR,0.00,VWS V14.01,2013-07-09 04:30:00,
2013-07-08 23:40:00,74.7,69.6,29.85,East,96,1.0,2.1,84,0.00,,CLR,0.00,VWS V14.01,2013-07-09 04:40:00,
2013-07-08 23:45:00,74.3,69.5,29.85,East,96,1.0,2.1,85,0.00,,CLR,0.00,VWS V14.01,2013-07-09 04:45:00,
2013-07-08 23:50:00,74.1,69.7,29.85,East,96,2.0,2.1,86,0.00,,CLR,0.00,VWS V14.01,2013-07-09 04:50:00,